Aérodrome :
LOGIN :

S'inscrire | Disclaimer

   EN    FR    IT 

 










Légende :    VFR   VFR Marginal   IFR   IFR Intensif   IFR Très Intensif
Visi : 
Plafond : 
>= 8 km
>= 3000ft
5 à 8 km
1000 à 3000 ft
1500m à 5 km
500 à 1000 ft
800 à 1500m
200 à 500 ft
< 800m
< 200 ft
Symboles :   Orages  Brouillard  Fortes neiges  Fortes précipitations  Vent > 20 kt
SIGMETs :   Divers  Orages  Givrage  Turbulence  Onde Orograph.  Cendres Volcan.






- Altitude de l'aérodrome : 2001 ft
- Code IATA : MAD


LEMD - Madrid

DERNIER METAR :
  • 162330Z 26008KT CAVOK 06/M02 Q1016 NOSIG

METARs EXPIRÉS :
  • 162300Z 28007KT CAVOK 06/M02 Q1016 NOSIG
  • 162230Z 28007KT 240V310 CAVOK 07/M02 Q1016 NOSIG
  • 162200Z 28010KT CAVOK 07/M02 Q1016 NOSIG
  • 162130Z 29013KT CAVOK 07/M01 Q1016 NOSIG
  • 162100Z 29014KT CAVOK 07/M01 Q1015 NOSIG

TAF TAF LEMD
Valide du 17 à 00h jusqu'au 18 à 06h UTC


162300Z 1700/1806 VRB05KT 9999 FEW045 TX11/1715Z TN02/1706Z
PROB30
TEMPO 1700/1703 29014KT
BECMG 1709/1711 22010KT
PROB30
TEMPO 1713/1719 22015G25KT
PROB40
TEMPO 1718/1722 28010KT
BECMG 1722/1724 VRB05KT
PROB30
TEMPO 1705/1712 2500 BR BKN010
PROB40
TEMPO 1704/1720 4900 RA BKN010
PROB30
TEMPO 1723/1806 2500 BR BKN010



MET'MAP, la Météo Aéronautique d'un coup d'oeil ! - Copyright ORBIFLY Décembre 2007 - Disclaimer

ORBIFLY MET'MAP TEAM :

Programmation & Développement : Alexandra Zaïnal
Conception & Développement : Baudouin d'Aumeries
Co-Programmation & Développement : Marc-Olivier Méhu
Soutien technique & logistique : Manuel Goepfert

Contact : metmap@orbifly.com




SOURCES & CREDITS :

   NOAA